createdAt,value
2018-09-20T00:02:03.655Z,5.60
2018-09-20T00:04:31.578Z,6.30
2018-09-20T00:06:58.881Z,6.00
2018-09-20T00:09:26.430Z,6.40
2018-09-20T00:11:54.699Z,7.17
2018-09-20T00:14:22.496Z,6.63
2018-09-20T00:16:50.289Z,7.10
2018-09-20T00:19:17.622Z,6.80
2018-09-20T00:21:45.189Z,6.13
2018-09-20T00:24:12.541Z,7.47
2018-09-20T00:26:39.897Z,7.23
2018-09-20T00:29:07.243Z,6.50
2018-09-20T00:31:36.604Z,7.17
2018-09-20T00:34:05.553Z,7.17
2018-09-20T00:36:33.243Z,6.63
2018-09-20T00:41:34.880Z,6.90
2018-09-20T00:44:04.317Z,7.37
2018-09-20T00:46:31.654Z,7.27
2018-09-20T00:49:04.355Z,6.50
2018-09-20T00:51:31.707Z,6.67
2018-09-20T00:53:59.116Z,7.27
2018-09-20T00:56:26.688Z,6.37
2018-09-20T00:58:54.092Z,6.83
2018-09-20T01:01:26.429Z,6.90
2018-09-20T01:03:53.736Z,6.97
2018-09-20T01:06:21.511Z,7.30
2018-09-20T01:08:49.382Z,6.73
2018-09-20T01:11:17.273Z,7.13
2018-09-20T01:13:49.003Z,6.80
2018-09-20T01:16:16.300Z,6.87
2018-09-20T01:18:43.637Z,7.00
2018-09-20T01:21:10.969Z,6.90
2018-09-20T01:23:38.312Z,8.00
2018-09-20T01:26:05.706Z,6.50
2018-09-20T01:28:33.027Z,7.70
2018-09-20T01:31:00.339Z,6.80
2018-09-20T01:33:28.101Z,7.07
2018-09-20T01:35:56.041Z,8.33
2018-09-20T01:38:23.596Z,6.70
2018-09-20T01:40:51.477Z,7.70
2018-09-20T01:43:18.777Z,7.03
2018-09-20T01:45:46.345Z,7.07
2018-09-20T01:48:13.681Z,7.73
2018-09-20T01:50:40.972Z,8.07
2018-09-20T01:53:08.311Z,6.93
2018-09-20T01:55:35.630Z,8.27
2018-09-20T01:58:03.204Z,6.43
2018-09-20T02:00:30.521Z,7.50
2018-09-20T02:02:57.913Z,7.40
2018-09-20T02:05:25.820Z,6.50
2018-09-20T02:07:53.605Z,7.73
2018-09-20T02:10:21.361Z,8.30
2018-09-20T02:12:49.252Z,8.03
2018-09-20T02:15:17.805Z,7.70
2018-09-20T02:17:45.392Z,7.47
2018-09-20T02:20:13.385Z,8.30
2018-09-20T02:22:42.442Z,7.33
2018-09-20T02:25:09.773Z,7.63
2018-09-20T02:27:37.313Z,7.37
2018-09-20T02:30:04.906Z,8.17
2018-09-20T02:32:32.240Z,7.23
2018-09-20T02:34:59.526Z,7.43
2018-09-20T02:37:30.765Z,7.00
2018-09-20T02:39:58.076Z,6.73
2018-09-20T02:42:25.597Z,7.93
2018-09-20T02:44:53.009Z,7.63
2018-09-20T02:47:20.792Z,7.70
2018-09-20T02:49:50.095Z,7.90
2018-09-20T02:52:20.900Z,7.40
2018-09-20T02:54:49.341Z,7.90
2018-09-20T02:57:16.652Z,8.33
2018-09-20T02:59:44.209Z,8.10
2018-09-20T03:02:11.813Z,7.60
2018-09-20T03:04:39.633Z,7.40
2018-09-20T03:07:07.010Z,8.33
2018-09-20T03:09:34.350Z,7.47
2018-09-20T03:12:01.650Z,7.13
2018-09-20T03:14:28.930Z,7.33
2018-09-20T03:16:56.284Z,8.07
2018-09-20T03:19:24.437Z,7.90
2018-09-20T03:21:52.119Z,7.80
2018-09-20T03:24:20.697Z,8.23
2018-09-20T03:26:48.721Z,8.20
2018-09-20T03:29:18.021Z,7.80
2018-09-20T03:31:45.805Z,10.37
2018-09-20T03:34:13.926Z,8.33
2018-09-20T03:36:41.926Z,8.07
2018-09-20T03:39:10.324Z,6.93
2018-09-20T03:41:37.837Z,7.83
2018-09-20T03:44:05.220Z,7.43
2018-09-20T03:46:33.473Z,7.77
2018-09-20T03:49:02.301Z,7.80
2018-09-20T03:51:29.998Z,7.10
2018-09-20T03:53:57.317Z,7.20
2018-09-20T03:56:25.742Z,7.60
2018-09-20T03:58:53.053Z,8.20
2018-09-20T04:01:20.395Z,7.50
2018-09-20T04:03:47.704Z,7.83
2018-09-20T04:06:15.038Z,7.90
2018-09-20T04:08:44.161Z,8.20
2018-09-20T04:11:11.477Z,8.63
2018-09-20T04:13:39.274Z,8.43
2018-09-20T04:16:06.653Z,7.50
2018-09-20T04:18:34.002Z,8.90
2018-09-20T04:21:01.296Z,8.20
2018-09-20T04:23:28.608Z,8.03
2018-09-20T04:25:55.914Z,8.30
2018-09-20T04:28:23.220Z,7.30
2018-09-20T04:30:50.512Z,8.47
2018-09-20T04:33:17.853Z,7.60
2018-09-20T04:35:45.197Z,8.40
2018-09-20T04:38:13.098Z,8.63
2018-09-20T04:40:54.872Z,8.13
2018-09-20T04:43:23.212Z,8.30
2018-09-20T04:45:51.211Z,8.67
2018-09-20T04:48:19.311Z,8.80
2018-09-20T04:50:46.611Z,8.77
2018-09-20T04:53:13.975Z,8.00
2018-09-20T04:55:41.535Z,8.63
2018-09-20T04:58:08.841Z,8.43
2018-09-20T05:00:36.228Z,8.23
2018-09-20T05:03:03.789Z,7.90
2018-09-20T05:05:31.081Z,8.20
2018-09-20T05:07:58.436Z,8.00
2018-09-20T05:10:25.727Z,8.03
2018-09-20T05:12:53.225Z,8.37
2018-09-20T05:15:20.942Z,8.60
2018-09-20T05:17:48.657Z,7.90
2018-09-20T05:20:16.324Z,8.97
2018-09-20T05:22:43.947Z,7.60
2018-09-20T05:25:11.505Z,8.00
2018-09-20T05:27:38.818Z,7.30
2018-09-20T05:30:06.561Z,9.20
2018-09-20T05:32:33.837Z,7.70
2018-09-20T05:35:01.151Z,9.03
2018-09-20T05:37:28.638Z,8.53
2018-09-20T05:43:19.661Z,7.90
2018-09-20T05:45:46.929Z,9.13
2018-09-20T05:48:14.196Z,8.83
2018-09-20T05:50:41.484Z,8.30
2018-09-20T05:53:08.734Z,8.90
2018-09-20T05:55:36.015Z,8.10
2018-09-20T05:58:03.282Z,8.10
2018-09-20T06:00:30.626Z,8.83
2018-09-20T06:02:57.869Z,8.80
2018-09-20T06:05:25.122Z,7.77
2018-09-20T06:07:52.372Z,8.00
2018-09-20T06:10:19.624Z,10.07
2018-09-20T06:12:46.896Z,8.60
2018-09-20T06:15:14.157Z,9.70
2018-09-20T06:17:41.399Z,7.97
2018-09-20T06:20:08.669Z,9.63
2018-09-20T06:22:35.917Z,8.80
2018-09-20T06:25:03.253Z,8.60
2018-09-20T06:27:30.540Z,8.70
2018-09-20T06:29:57.831Z,8.60
2018-09-20T06:32:25.155Z,9.27
2018-09-20T06:34:52.447Z,8.60
2018-09-20T06:37:19.681Z,9.30
2018-09-20T06:39:46.924Z,9.90
2018-09-20T06:42:14.180Z,9.93
2018-09-20T06:44:41.458Z,9.70
2018-09-20T06:47:08.721Z,9.50
2018-09-20T06:49:35.960Z,9.23
2018-09-20T06:52:03.263Z,9.70
2018-09-20T06:54:30.509Z,9.40
2018-09-20T06:56:57.782Z,8.63
2018-09-20T06:59:25.063Z,8.80
2018-09-20T07:01:52.367Z,9.83
2018-09-20T07:04:19.631Z,9.67
2018-09-20T07:06:46.980Z,9.17
2018-09-20T07:09:14.384Z,8.97
2018-09-20T07:11:41.677Z,9.10
2018-09-20T07:14:08.949Z,12.90
2018-09-20T07:16:36.213Z,9.23
2018-09-20T07:19:03.702Z,9.37
2018-09-20T07:21:31.008Z,9.50
2018-09-20T07:23:58.306Z,8.90
2018-09-20T07:26:25.620Z,8.50
2018-09-20T07:28:52.872Z,8.43
2018-09-20T07:31:20.140Z,8.83
2018-09-20T07:33:47.449Z,8.60
2018-09-20T07:36:14.701Z,8.30
2018-09-20T07:38:41.969Z,8.83
2018-09-20T07:41:09.222Z,9.20
2018-09-20T07:43:36.586Z,9.50
2018-09-20T07:46:03.770Z,8.90
2018-09-20T07:48:31.032Z,9.30
2018-09-20T07:50:58.300Z,8.40
2018-09-20T07:53:25.561Z,9.07
2018-09-20T07:55:52.820Z,8.10
2018-09-20T07:58:20.093Z,8.60
2018-09-20T08:00:47.441Z,8.23
2018-09-20T08:03:14.739Z,8.90
2018-09-20T08:05:42.035Z,8.00
2018-09-20T08:08:09.344Z,7.07
2018-09-20T08:10:36.621Z,8.57
2018-09-20T08:13:04.004Z,9.17
2018-09-20T08:15:31.259Z,8.33
2018-09-20T08:17:58.532Z,7.17
2018-09-20T08:20:25.853Z,8.00
2018-09-20T08:22:53.129Z,7.80
2018-09-20T08:25:20.769Z,8.10
2018-09-20T08:27:48.083Z,8.30
2018-09-20T08:30:15.377Z,8.73
2018-09-20T08:32:42.665Z,7.90
2018-09-20T08:35:09.957Z,7.90
2018-09-20T08:37:37.345Z,7.93
2018-09-20T08:40:04.629Z,8.00
2018-09-20T08:42:31.912Z,7.60
2018-09-20T08:44:59.251Z,8.60
2018-09-20T08:47:26.589Z,7.53
2018-09-20T08:49:53.868Z,7.37
2018-09-20T08:52:21.189Z,7.17
2018-09-20T08:54:48.479Z,8.00
2018-09-20T08:57:15.821Z,8.03
2018-09-20T08:59:43.078Z,7.43
2018-09-20T09:02:10.338Z,7.10
2018-09-20T09:04:37.627Z,8.30
2018-09-20T09:07:04.921Z,7.30
2018-09-20T09:09:32.178Z,7.30
2018-09-20T09:11:59.467Z,7.47
2018-09-20T09:14:26.693Z,7.27
2018-09-20T09:16:53.960Z,7.07
2018-09-20T09:19:21.213Z,7.20
2018-09-20T09:21:48.491Z,6.87
2018-09-20T09:24:15.758Z,6.87
2018-09-20T09:26:43.019Z,6.70
2018-09-20T09:29:10.269Z,6.20
2018-09-20T09:31:37.562Z,6.67
2018-09-20T09:34:04.898Z,6.63
2018-09-20T09:36:32.137Z,6.17
2018-09-20T09:38:59.424Z,6.23
2018-09-20T09:41:26.689Z,7.10
2018-09-20T09:43:53.950Z,6.30
2018-09-20T09:46:21.214Z,6.67
2018-09-20T09:48:48.476Z,7.23
2018-09-20T09:51:15.771Z,6.10
2018-09-20T09:53:43.078Z,5.93
2018-09-20T09:56:10.413Z,6.30
2018-09-20T09:58:37.736Z,6.73
2018-09-20T10:01:05.037Z,6.13
2018-09-20T10:03:32.313Z,6.60
2018-09-20T10:05:59.590Z,7.07
2018-09-20T10:08:26.963Z,8.10
2018-09-20T10:10:54.359Z,7.03
2018-09-20T10:13:21.755Z,6.23
2018-09-20T10:15:48.940Z,7.83
2018-09-20T10:18:16.209Z,7.77
2018-09-20T10:20:43.501Z,7.70
2018-09-20T10:23:10.840Z,7.00
2018-09-20T10:25:38.108Z,7.37
2018-09-20T10:28:05.470Z,7.90
2018-09-20T10:30:32.667Z,6.50
2018-09-20T10:32:59.948Z,7.43
2018-09-20T10:35:27.220Z,6.80
2018-09-20T10:37:54.482Z,8.17
2018-09-20T10:40:21.760Z,8.20
2018-09-20T10:42:49.056Z,7.17
2018-09-20T10:45:16.317Z,7.63
2018-09-20T10:47:43.577Z,7.63
2018-09-20T10:50:10.837Z,8.50
2018-09-20T10:52:38.139Z,7.67
2018-09-20T10:55:05.409Z,7.23
2018-09-20T10:57:32.690Z,6.80
2018-09-20T10:59:59.966Z,7.70
2018-09-20T11:02:27.346Z,7.40
2018-09-20T11:04:54.665Z,7.30
2018-09-20T11:07:21.972Z,8.53
2018-09-20T11:09:49.287Z,7.80
2018-09-20T11:12:16.590Z,7.53
2018-09-20T11:14:43.917Z,6.80
2018-09-20T11:17:11.217Z,7.87
2018-09-20T11:19:38.518Z,8.43
2018-09-20T11:22:05.839Z,7.97
2018-09-20T11:24:33.150Z,8.70
2018-09-20T11:27:00.429Z,8.53
2018-09-20T11:29:27.752Z,6.90
2018-09-20T11:31:55.051Z,8.20
2018-09-20T11:34:22.341Z,6.93
2018-09-20T11:36:49.634Z,7.37
2018-09-20T11:39:16.946Z,6.80
2018-09-20T11:41:44.232Z,7.90
2018-09-20T11:44:11.546Z,7.07
2018-09-20T11:46:39.011Z,7.73
2018-09-20T11:49:06.248Z,7.50
2018-09-20T11:51:33.574Z,7.67
2018-09-20T11:54:00.868Z,7.20
2018-09-20T11:56:28.276Z,6.87
2018-09-20T11:58:55.610Z,6.63
2018-09-20T12:01:23.001Z,6.70
2018-09-20T12:03:50.262Z,7.23
2018-09-20T12:06:17.614Z,6.70
2018-09-20T12:08:44.925Z,7.40
2018-09-20T12:11:12.268Z,7.27
2018-09-20T12:13:39.570Z,6.40
2018-09-20T12:16:06.920Z,7.40
2018-09-20T12:18:34.216Z,7.27
2018-09-20T12:21:01.538Z,6.70
2018-09-20T12:23:28.969Z,7.00
2018-09-20T12:25:56.334Z,8.10
2018-09-20T12:28:23.591Z,6.67
2018-09-20T12:30:50.915Z,7.20
2018-09-20T12:33:18.202Z,6.93
2018-09-20T12:35:45.611Z,7.47
2018-09-20T12:38:12.866Z,6.60
2018-09-20T12:40:40.133Z,7.00
2018-09-20T12:43:07.508Z,7.97
2018-09-20T12:45:34.766Z,7.07
2018-09-20T12:48:02.176Z,6.50
2018-09-20T12:50:29.474Z,6.53
2018-09-20T12:52:56.785Z,6.63
2018-09-20T12:55:24.094Z,5.90
2018-09-20T12:57:51.395Z,6.27
2018-09-20T13:00:19.277Z,7.23
2018-09-20T13:02:46.581Z,6.13
2018-09-20T13:05:13.921Z,5.90
2018-09-20T13:07:41.230Z,5.90
2018-09-20T13:10:08.556Z,7.30
2018-09-20T13:12:35.913Z,6.37
2018-09-20T13:15:03.388Z,6.27
2018-09-20T13:17:30.728Z,6.80
2018-09-20T13:19:58.048Z,5.83
2018-09-20T13:22:25.333Z,6.70
2018-09-20T13:24:52.613Z,6.73
2018-09-20T13:27:19.906Z,6.50
2018-09-20T13:29:47.219Z,6.80
2018-09-20T13:32:14.510Z,5.83
2018-09-20T13:34:41.817Z,5.97
2018-09-20T13:37:09.184Z,7.17
2018-09-20T13:39:36.479Z,6.00
2018-09-20T13:42:03.803Z,6.57
2018-09-20T13:44:31.104Z,6.20
2018-09-20T13:46:58.404Z,6.83
2018-09-20T13:49:25.706Z,5.67
2018-09-20T13:51:53.003Z,5.70
2018-09-20T13:54:20.315Z,5.40
2018-09-20T13:56:47.596Z,5.70
2018-09-20T13:59:14.906Z,6.47
2018-09-20T14:01:42.212Z,5.93
2018-09-20T14:04:09.509Z,6.37
2018-09-20T14:06:36.802Z,5.40
2018-09-20T14:09:07.602Z,6.17
2018-09-20T14:11:34.924Z,5.93
2018-09-20T14:14:02.245Z,5.73
2018-09-20T14:16:29.569Z,6.27
2018-09-20T14:18:56.927Z,6.10
2018-09-20T14:21:24.225Z,6.27
2018-09-20T14:23:51.865Z,6.40
2018-09-20T14:26:19.124Z,6.00
2018-09-20T14:28:46.434Z,5.80
2018-09-20T14:31:13.750Z,6.10
2018-09-20T14:33:41.054Z,5.30
2018-09-20T14:36:08.362Z,5.90
2018-09-20T14:38:35.675Z,5.40
2018-09-20T14:41:03.001Z,6.40
2018-09-20T14:43:30.409Z,5.90
2018-09-20T14:45:57.701Z,6.00
2018-09-20T14:48:24.997Z,5.60
2018-09-20T14:50:52.307Z,6.30
2018-09-20T14:53:19.603Z,5.30
2018-09-20T14:55:46.919Z,5.47
2018-09-20T14:58:14.254Z,5.30
2018-09-20T15:00:41.544Z,5.53
2018-09-20T15:03:08.806Z,5.27
2018-09-20T15:05:36.098Z,5.10
2018-09-20T15:08:03.452Z,5.50
2018-09-20T15:10:30.693Z,4.57
2018-09-20T15:12:57.987Z,5.70
2018-09-20T15:15:25.280Z,5.00
2018-09-20T15:17:52.569Z,5.00
2018-09-20T15:20:19.842Z,5.40
2018-09-20T15:22:47.130Z,4.97
2018-09-20T15:25:14.401Z,5.03
2018-09-20T15:27:41.673Z,5.67
2018-09-20T15:30:08.997Z,5.07
2018-09-20T15:32:36.310Z,5.40
2018-09-20T15:35:03.621Z,4.63
2018-09-20T15:37:30.910Z,5.10
2018-09-20T15:39:58.220Z,5.33
2018-09-20T15:42:25.479Z,5.00
2018-09-20T15:44:52.884Z,5.67
2018-09-20T15:47:20.284Z,4.83
2018-09-20T15:49:47.558Z,4.83
2018-09-20T15:52:14.879Z,4.73
2018-09-20T15:54:42.177Z,4.90
2018-09-20T15:57:09.498Z,5.83
2018-09-20T15:59:36.818Z,4.23
2018-09-20T16:02:04.141Z,4.73
2018-09-20T16:04:31.555Z,4.10
2018-09-20T16:06:58.851Z,5.10
2018-09-20T16:09:26.195Z,7.60
2018-09-20T16:11:53.505Z,4.90
2018-09-20T16:14:20.805Z,4.07
2018-09-20T16:16:48.130Z,4.40
2018-09-20T16:19:15.450Z,5.50
2018-09-20T16:21:42.762Z,5.20
2018-09-20T16:24:10.086Z,5.47
2018-09-20T16:26:37.430Z,4.33
2018-09-20T16:29:09.394Z,4.83
2018-09-20T16:32:17.863Z,4.40
2018-09-20T16:35:58.802Z,4.03
2018-09-20T16:39:34.737Z,4.60
2018-09-20T16:42:03.020Z,4.37
2018-09-20T16:44:30.318Z,4.57
2018-09-20T16:46:57.612Z,4.83
2018-09-20T16:49:24.905Z,4.87
2018-09-20T16:51:52.189Z,4.37
2018-09-20T16:54:19.475Z,4.03
2018-09-20T16:56:46.765Z,4.80
2018-09-20T16:59:14.089Z,4.47
2018-09-20T17:01:41.362Z,4.30
2018-09-20T17:04:08.734Z,4.83
2018-09-20T17:06:36.038Z,4.57
2018-09-20T17:09:05.266Z,5.30
2018-09-20T17:11:32.579Z,5.30
2018-09-20T17:13:59.862Z,5.27
2018-09-20T17:16:27.241Z,4.60
2018-09-20T17:18:54.530Z,5.40
2018-09-20T17:21:21.847Z,4.63
2018-09-20T17:23:49.150Z,5.53
2018-09-20T17:26:16.471Z,5.40
2018-09-20T17:28:43.765Z,4.80
2018-09-20T17:31:11.114Z,4.73
2018-09-20T17:33:38.393Z,5.20
2018-09-20T17:36:05.945Z,5.53
2018-09-20T17:38:34.721Z,6.00
2018-09-20T17:41:04.642Z,6.30
2018-09-20T17:43:39.058Z,5.40
2018-09-20T17:46:06.404Z,6.37
2018-09-20T17:48:33.713Z,4.93
2018-09-20T17:51:01.455Z,5.40
2018-09-20T17:53:29.112Z,6.37
2018-09-20T17:55:56.968Z,5.20
2018-09-20T17:58:24.665Z,4.90
2018-09-20T18:00:51.934Z,5.33
2018-09-20T18:03:19.291Z,7.70
2018-09-20T18:05:46.552Z,5.03
2018-09-20T18:08:13.890Z,4.83
2018-09-20T18:10:41.149Z,5.30
2018-09-20T18:13:08.401Z,5.20
2018-09-20T18:15:35.706Z,5.60
2018-09-20T18:18:02.991Z,6.10
2018-09-20T18:20:30.257Z,5.50
2018-09-20T18:22:57.601Z,5.10
2018-09-20T18:25:24.837Z,4.40
2018-09-20T18:27:52.134Z,4.83
2018-09-20T18:30:19.499Z,5.80
2018-09-20T18:32:46.846Z,5.43
2018-09-20T18:35:14.241Z,5.10
2018-09-20T18:37:42.122Z,5.57
2018-09-20T18:40:09.594Z,5.87
2018-09-20T18:42:37.025Z,5.30
2018-09-20T18:45:04.568Z,5.40
2018-09-20T18:47:31.970Z,5.70
2018-09-20T18:49:59.730Z,5.30
2018-09-20T18:52:27.098Z,5.27
2018-09-20T18:54:54.483Z,5.13
2018-09-20T18:57:21.822Z,5.40
2018-09-20T18:59:49.170Z,5.50
2018-09-20T19:02:16.524Z,5.87
2018-09-20T19:04:43.917Z,5.50
2018-09-20T19:07:11.276Z,5.47
2018-09-20T19:09:38.645Z,5.20
2018-09-20T19:12:05.983Z,6.23
2018-09-20T19:14:33.368Z,6.47
2018-09-20T19:17:00.723Z,6.03
2018-09-20T19:19:28.087Z,6.30
2018-09-20T19:21:55.429Z,5.40
2018-09-20T19:24:22.823Z,5.40
2018-09-20T19:26:50.261Z,6.40
2018-09-20T19:29:17.574Z,5.47
2018-09-20T19:31:44.850Z,5.80
2018-09-20T19:34:12.133Z,6.30
2018-09-20T19:36:39.382Z,5.40
2018-09-20T19:39:08.169Z,5.87
2018-09-20T19:41:35.480Z,6.03
2018-09-20T19:44:02.775Z,6.17
2018-09-20T19:46:30.093Z,5.67
2018-09-20T19:48:57.486Z,6.33
2018-09-20T19:51:24.750Z,6.77
2018-09-20T19:53:52.022Z,6.20
2018-09-20T19:56:19.286Z,6.50
2018-09-20T19:58:46.602Z,6.90
2018-09-20T20:01:13.998Z,6.53
2018-09-20T20:03:41.251Z,6.57
2018-09-20T20:06:08.519Z,6.00
2018-09-20T20:08:35.797Z,6.20
2018-09-20T20:11:03.098Z,6.33
2018-09-20T20:13:30.337Z,5.93
2018-09-20T20:15:57.620Z,6.37
2018-09-20T20:18:24.906Z,5.70
2018-09-20T20:20:52.176Z,5.47
2018-09-20T20:23:19.463Z,6.17
2018-09-20T20:25:46.717Z,5.97
2018-09-20T20:28:13.993Z,6.20
2018-09-20T20:30:41.282Z,5.13
2018-09-20T20:33:08.602Z,5.43
2018-09-20T20:35:35.857Z,5.93
2018-09-20T20:38:03.153Z,5.90
2018-09-20T20:40:30.409Z,7.20
2018-09-20T20:42:57.661Z,5.30
2018-09-20T20:45:24.923Z,6.40
2018-09-20T20:47:52.185Z,5.33
2018-09-20T20:50:19.486Z,6.23
2018-09-20T20:52:46.745Z,5.40
2018-09-20T20:55:14.021Z,5.70
2018-09-20T20:57:41.288Z,5.30
2018-09-20T21:00:08.570Z,6.20
2018-09-20T21:02:35.886Z,6.20
2018-09-20T21:05:03.238Z,5.43
2018-09-20T21:07:30.532Z,5.77
2018-09-20T21:09:57.832Z,6.30
2018-09-20T21:12:25.149Z,6.07
2018-09-20T21:14:52.446Z,6.40
2018-09-20T21:17:19.879Z,6.73
2018-09-20T21:19:47.162Z,6.30
2018-09-20T21:22:14.461Z,6.10
2018-09-20T21:24:41.755Z,6.20
2018-09-20T21:27:09.161Z,5.63
2018-09-20T21:29:36.517Z,5.93
2018-09-20T21:32:03.917Z,6.23
2018-09-20T21:34:31.457Z,5.20
2018-09-20T21:36:58.820Z,6.20
2018-09-20T21:39:26.184Z,5.17
2018-09-20T21:41:53.456Z,6.73
2018-09-20T21:44:20.810Z,6.83
2018-09-20T21:46:48.093Z,6.90
2018-09-20T21:49:15.389Z,6.57
2018-09-20T21:51:42.702Z,6.30
2018-09-20T21:54:10.591Z,6.10
2018-09-20T21:56:38.069Z,5.50
2018-09-20T21:59:05.784Z,7.27
2018-09-20T22:01:39.106Z,6.20
2018-09-20T22:04:06.385Z,6.33
2018-09-20T22:06:34.525Z,5.90
2018-09-20T22:09:01.860Z,6.63
2018-09-20T22:11:29.137Z,5.70
2018-09-20T22:13:56.434Z,6.60
2018-09-20T22:16:23.712Z,6.80
2018-09-20T22:18:51.005Z,6.57
2018-09-20T22:21:18.292Z,6.20
2018-09-20T22:23:45.576Z,6.83
2018-09-20T22:26:12.893Z,6.23
2018-09-20T22:28:40.179Z,6.00
2018-09-20T22:31:07.490Z,6.20
2018-09-20T22:33:34.795Z,6.30
2018-09-20T22:36:02.093Z,6.40
2018-09-20T22:38:29.402Z,6.40
2018-09-20T22:40:56.693Z,6.20
2018-09-20T22:43:23.977Z,6.70
2018-09-20T22:45:51.743Z,6.33
2018-09-20T22:48:19.021Z,6.37
2018-09-20T22:50:46.353Z,6.47
2018-09-20T22:53:14.782Z,7.00
2018-09-20T22:55:42.723Z,6.13
2018-09-20T22:58:10.070Z,6.60
2018-09-20T23:00:38.110Z,6.83
2018-09-20T23:03:05.702Z,6.73
2018-09-20T23:05:33.189Z,6.60
2018-09-20T23:08:00.482Z,8.10
2018-09-20T23:10:27.816Z,6.90
2018-09-20T23:12:55.125Z,7.20
2018-09-20T23:15:22.658Z,6.47
2018-09-20T23:17:50.570Z,6.40
2018-09-20T23:20:18.103Z,7.33
2018-09-20T23:22:45.384Z,7.53
2018-09-20T23:25:12.693Z,7.20
2018-09-20T23:27:40.031Z,7.53
2018-09-20T23:30:07.319Z,8.43
2018-09-20T23:32:34.609Z,5.93
2018-09-20T23:35:01.908Z,6.17
2018-09-20T23:37:29.222Z,5.90
2018-09-20T23:39:56.549Z,6.70
2018-09-20T23:42:23.844Z,6.80
2018-09-20T23:44:51.140Z,6.73
2018-09-20T23:47:18.425Z,6.50
2018-09-20T23:49:45.734Z,6.67
2018-09-20T23:52:13.121Z,6.50
2018-09-20T23:54:40.433Z,7.10
2018-09-20T23:57:07.797Z,6.03
2018-09-20T23:59:35.169Z,6.80
